Time;durP1;ratioP1;P1;durP2;ratioP2;P2;SDS_P1;SDS_P2;PMS_P1;PMS_P2;Temp;Humidity;BMP_temperature;BMP_pressure;BME280_temperature;BME280_humidity;BME280_pressure;Samples;Min_cycle;Max_cycle;Signal;HPM_P1;HPM_P2
2022/01/29 00:02:23;;;;;;;1.47;1.30;;;0.70;99.90;;;;;;5046194;28;20483;-51
2022/01/29 00:04:50;;;;;;;5.53;1.50;;;0.80;99.90;;;;;;5046734;28;20889;-51
2022/01/29 00:07:17;;;;;;;5.50;1.87;;;0.70;99.90;;;;;;5048316;28;20573;-51
2022/01/29 00:09:46;;;;;;;2.73;1.37;;;0.70;99.90;;;;;;5052332;28;20455;-51
2022/01/29 00:12:13;;;;;;;2.00;1.63;;;0.70;99.90;;;;;;5049548;28;20528;-50
2022/01/29 00:14:40;;;;;;;1.83;1.57;;;0.70;99.90;;;;;;5044840;28;20484;-52
2022/01/29 00:17:07;;;;;;;2.00;1.83;;;0.70;99.90;;;;;;5048474;28;20482;-53
2022/01/29 00:19:40;;;;;;;1.83;1.67;;;0.70;99.90;;;;;;5041552;28;20540;-48
2022/01/29 00:22:07;;;;;;;1.67;1.57;;;0.50;99.90;;;;;;5049165;28;20872;-51
2022/01/29 00:24:36;;;;;;;2.40;1.67;;;0.40;99.90;;;;;;5050434;28;20868;-52
2022/01/29 00:27:08;;;;;;;3.17;1.53;;;0.10;99.90;;;;;;5044636;28;20558;-52
2022/01/29 00:29:38;;;;;;;1.80;1.70;;;0.00;99.90;;;;;;5050370;28;20985;-52
2022/01/29 00:32:05;;;;;;;2.27;1.73;;;0.10;99.90;;;;;;5050343;28;20530;-47
2022/01/29 00:34:32;;;;;;;1.80;1.10;;;0.10;99.90;;;;;;5049487;28;20565;-53
2022/01/29 00:37:01;;;;;;;1.30;1.10;;;0.10;99.90;;;;;;5043133;28;20507;-54
2022/01/29 00:39:28;;;;;;;1.73;1.20;;;-0.20;99.90;;;;;;5046115;28;21096;-52
2022/01/29 00:41:56;;;;;;;1.30;1.20;;;-0.30;99.90;;;;;;5041264;28;20608;-52
2022/01/29 00:44:23;;;;;;;1.43;1.33;;;-0.30;99.90;;;;;;5042564;28;20476;-50
2022/01/29 00:46:49;;;;;;;1.70;1.60;;;-0.20;99.90;;;;;;5038097;28;20505;-50
2022/01/29 00:49:16;;;;;;;1.60;1.50;;;-0.20;99.90;;;;;;5036223;28;20496;-50
2022/01/29 00:51:43;;;;;;;2.60;2.20;;;-0.10;99.90;;;;;;5041167;28;20475;-51
2022/01/29 00:54:12;;;;;;;1.50;1.40;;;-0.10;99.90;;;;;;5043886;28;20966;-53
2022/01/29 00:56:39;;;;;;;1.50;1.27;;;-0.10;99.90;;;;;;5041757;28;20507;-52
2022/01/29 00:59:06;;;;;;;1.83;1.60;;;0.00;99.90;;;;;;5043021;28;20465;-51
2022/01/29 01:01:33;;;;;;;2.33;1.67;;;0.00;99.90;;;;;;5054274;28;20483;-52
2022/01/29 01:04:00;;;;;;;1.73;1.53;;;0.10;99.90;;;;;;5042715;28;20955;-51
2022/01/29 01:06:27;;;;;;;2.30;1.50;;;0.20;99.90;;;;;;5050333;28;20554;-53
2022/01/29 01:08:54;;;;;;;1.50;1.30;;;0.20;99.90;;;;;;5043429;28;20536;-51
2022/01/29 01:11:22;;;;;;;1.70;1.27;;;0.20;99.90;;;;;;5051075;28;20993;-52
2022/01/29 01:13:49;;;;;;;1.83;1.60;;;0.10;99.90;;;;;;5044772;28;20506;-51
2022/01/29 01:16:16;;;;;;;2.10;1.47;;;0.10;99.90;;;;;;5052738;28;20489;-52
2022/01/29 01:18:43;;;;;;;1.23;0.87;;;0.20;99.90;;;;;;5048506;28;20452;-52
2022/01/29 01:21:10;;;;;;;1.30;1.20;;;0.20;99.90;;;;;;5055726;28;20494;-52
2022/01/29 01:23:37;;;;;;;1.37;1.27;;;0.20;99.90;;;;;;5059288;28;20841;-51
2022/01/29 01:26:04;;;;;;;2.90;1.70;;;0.20;99.90;;;;;;5049709;28;20499;-51
2022/01/29 01:28:32;;;;;;;2.80;1.90;;;0.20;99.90;;;;;;5054321;28;20538;-52
2022/01/29 01:30:59;;;;;;;7.07;3.40;;;0.20;99.90;;;;;;5058938;28;20476;-53
2022/01/29 01:33:26;;;;;;;2.53;2.27;;;0.10;99.90;;;;;;5062778;28;20569;-50
2022/01/29 01:35:57;;;;;;;3.80;1.90;;;0.00;99.90;;;;;;5047195;28;20460;-52
2022/01/29 01:38:32;;;;;;;2.13;1.90;;;0.00;99.90;;;;;;5050231;28;20946;-51
2022/01/29 01:41:03;;;;;;;2.07;1.87;;;0.00;99.90;;;;;;5039218;28;20450;-50
2022/01/29 01:43:31;;;;;;;6.33;2.43;;;0.00;99.90;;;;;;5059312;28;20539;-51
2022/01/29 01:45:58;;;;;;;2.10;1.47;;;0.00;99.90;;;;;;5059093;28;20499;-48
2022/01/29 01:48:25;;;;;;;2.30;2.00;;;0.00;99.90;;;;;;5049340;28;20984;-52
2022/01/29 01:50:52;;;;;;;1.30;1.20;;;0.00;99.90;;;;;;5046029;28;20568;-51
2022/01/29 01:53:19;;;;;;;1.73;1.60;;;0.00;99.90;;;;;;5042615;28;20511;-52
2022/01/29 01:55:48;;;;;;;3.80;1.60;;;0.00;99.90;;;;;;5060150;28;20557;-53
2022/01/29 01:58:15;;;;;;;1.30;1.20;;;-0.30;99.90;;;;;;5054463;28;20479;-51
2022/01/29 02:00:44;;;;;;;1.30;1.20;;;-0.20;99.90;;;;;;5055170;28;20484;-52
2022/01/29 02:03:11;;;;;;;1.50;1.13;;;-0.10;99.90;;;;;;5059093;28;20483;-48
2022/01/29 02:05:39;;;;;;;1.50;1.20;;;0.00;99.90;;;;;;5052063;28;20448;-50
2022/01/29 02:08:07;;;;;;;2.23;1.23;;;0.00;99.90;;;;;;5046014;28;20482;-52
2022/01/29 02:10:34;;;;;;;2.70;1.30;;;0.10;99.90;;;;;;5050391;28;20484;-50
2022/01/29 02:13:04;;;;;;;1.13;1.03;;;0.10;99.90;;;;;;5058455;28;21020;-52
2022/01/29 02:15:31;;;;;;;1.00;1.00;;;-0.30;99.90;;;;;;5063739;28;20491;-51
2022/01/29 02:18:00;;;;;;;1.20;1.10;;;-0.50;99.90;;;;;;5046163;28;20517;-52
2022/01/29 02:20:30;;;;;;;1.73;1.00;;;-0.40;99.90;;;;;;5051277;28;20871;-51
2022/01/29 02:23:00;;;;;;;2.70;1.20;;;-0.30;99.90;;;;;;5059675;28;20832;-53
2022/01/29 02:25:32;;;;;;;1.37;1.27;;;-0.50;99.90;;;;;;5061216;28;20450;-51
2022/01/29 02:28:01;;;;;;;1.73;1.40;;;-0.50;99.90;;;;;;5062536;28;20552;-52
2022/01/29 02:30:31;;;;;;;1.70;1.60;;;-0.40;99.90;;;;;;5052414;28;20474;-51
2022/01/29 02:32:58;;;;;;;1.33;1.23;;;-0.30;99.90;;;;;;5055123;28;20461;-48
2022/01/29 02:35:27;;;;;;;2.60;1.47;;;-0.20;99.90;;;;;;5056243;28;20446;-49
2022/01/29 02:37:54;;;;;;;1.70;1.13;;;-0.10;99.90;;;;;;5055354;28;20444;-50
2022/01/29 02:40:23;;;;;;;2.53;2.17;;;-0.10;99.90;;;;;;5055917;28;20441;-51
2022/01/29 02:42:51;;;;;;;2.07;1.87;;;-0.10;99.90;;;;;;5047924;28;20953;-51
2022/01/29 02:45:18;;;;;;;2.80;1.90;;;0.00;99.90;;;;;;5061701;28;20441;-52
2022/01/29 02:47:45;;;;;;;1.67;1.53;;;0.00;99.90;;;;;;5060711;28;21515;-52
2022/01/29 02:50:13;;;;;;;2.37;1.60;;;-0.30;99.90;;;;;;5047942;28;20471;-49
2022/01/29 02:52:40;;;;;;;2.10;1.63;;;-0.40;99.90;;;;;;5052541;28;20461;-51
2022/01/29 02:55:07;;;;;;;3.13;1.73;;;-0.30;99.90;;;;;;5062071;28;20479;-51
2022/01/29 02:57:35;;;;;;;2.67;1.30;;;-0.30;99.90;;;;;;5053130;28;20498;-53
2022/01/29 03:00:03;;;;;;;1.90;1.40;;;-0.30;99.90;;;;;;5054777;28;20482;-52
2022/01/29 03:02:30;;;;;;;1.10;0.80;;;-0.50;99.90;;;;;;5054044;28;20884;-51
2022/01/29 03:04:57;;;;;;;1.63;1.37;;;-0.80;99.90;;;;;;5059160;28;20937;-50
2022/01/29 03:07:24;;;;;;;2.53;1.50;;;-0.70;99.90;;;;;;5055681;28;20964;-52
2022/01/29 03:09:51;;;;;;;2.63;2.00;;;-0.50;99.90;;;;;;5056391;28;20535;-51
2022/01/29 03:12:18;;;;;;;1.73;1.63;;;-0.50;99.90;;;;;;5053203;28;20471;-51
2022/01/29 03:14:46;;;;;;;2.63;1.60;;;-0.40;99.90;;;;;;5057663;28;20552;-51
2022/01/29 03:17:13;;;;;;;1.80;1.43;;;-0.30;99.90;;;;;;5055290;28;20549;-49
2022/01/29 03:19:40;;;;;;;2.13;1.60;;;-0.30;99.90;;;;;;5047742;28;20465;-51
2022/01/29 03:22:07;;;;;;;1.93;1.50;;;-0.30;99.90;;;;;;5056392;28;20434;-52
2022/01/29 03:24:34;;;;;;;2.37;2.17;;;-0.70;99.90;;;;;;5058632;28;20470;-52
2022/01/29 03:27:01;;;;;;;1.30;1.20;;;-0.90;99.90;;;;;;5064936;28;20508;-50
2022/01/29 03:29:28;;;;;;;1.70;1.20;;;-0.80;99.90;;;;;;5050406;28;20546;-51
2022/01/29 03:31:56;;;;;;;1.60;1.13;;;-0.60;99.90;;;;;;5050705;28;20474;-50
2022/01/29 03:34:23;;;;;;;2.23;1.23;;;-0.50;99.90;;;;;;5056540;28;20509;-50
2022/01/29 03:36:50;;;;;;;2.20;1.27;;;-0.40;99.90;;;;;;5060864;28;20921;-52
2022/01/29 03:39:17;;;;;;;3.13;1.30;;;-0.30;99.90;;;;;;5050468;28;20505;-50
2022/01/29 03:41:44;;;;;;;1.70;1.50;;;-0.30;99.90;;;;;;5059527;28;20453;-51
2022/01/29 03:44:11;;;;;;;1.90;1.40;;;-0.20;99.90;;;;;;5059424;28;20508;-48
2022/01/29 03:46:38;;;;;;;2.60;1.43;;;-0.10;99.90;;;;;;5058641;28;20472;-50
2022/01/29 03:49:06;;;;;;;1.93;1.67;;;-0.10;99.90;;;;;;5048321;28;20495;-52
2022/01/29 03:51:33;;;;;;;2.37;1.20;;;-0.10;99.90;;;;;;5057558;28;20501;-52
2022/01/29 03:54:00;;;;;;;1.20;1.10;;;-0.10;99.90;;;;;;5053135;28;20518;-51
2022/01/29 03:56:27;;;;;;;1.60;1.43;;;-0.10;99.90;;;;;;5056766;28;20508;-50
2022/01/29 03:58:54;;;;;;;2.30;1.23;;;0.00;99.90;;;;;;5062152;28;20998;-48
2022/01/29 04:01:21;;;;;;;1.33;1.23;;;0.00;99.90;;;;;;5056311;28;20491;-51
2022/01/29 04:03:48;;;;;;;1.30;1.20;;;0.00;99.90;;;;;;5053826;28;20475;-52
2022/01/29 04:06:16;;;;;;;1.80;1.13;;;0.10;99.90;;;;;;5054874;28;20507;-50
2022/01/29 04:08:44;;;;;;;5.13;1.57;;;0.10;99.90;;;;;;5055992;28;20481;-48
2022/01/29 04:11:12;;;;;;;2.47;1.47;;;0.10;99.90;;;;;;5063286;28;20939;-50
2022/01/29 04:13:42;;;;;;;1.83;1.73;;;0.10;99.90;;;;;;5051669;28;20518;-52
2022/01/29 04:16:09;;;;;;;1.70;1.53;;;0.10;99.90;;;;;;5054535;28;20886;-51
2022/01/29 04:18:36;;;;;;;3.13;1.50;;;0.10;99.90;;;;;;5048864;28;20492;-50
2022/01/29 04:21:04;;;;;;;1.53;1.20;;;0.10;99.90;;;;;;5056862;28;20962;-51
2022/01/29 04:23:33;;;;;;;5.27;1.10;;;-0.20;99.90;;;;;;5054987;28;20471;-51
2022/01/29 04:26:00;;;;;;;1.17;1.07;;;-0.40;99.90;;;;;;5054450;28;20459;-50
2022/01/29 04:28:31;;;;;;;1.67;1.37;;;-0.30;99.90;;;;;;5055318;28;20817;-53
2022/01/29 04:31:01;;;;;;;1.33;1.23;;;-0.30;99.90;;;;;;5057446;28;20536;-52
2022/01/29 04:33:31;;;;;;;3.13;1.20;;;-0.50;99.90;;;;;;5055999;28;20541;-54
2022/01/29 04:36:00;;;;;;;2.00;1.27;;;-0.60;99.90;;;;;;5078844;23;20509;-56
2022/01/29 04:38:28;;;;;;;1.70;1.20;;;-0.60;99.90;;;;;;5054600;28;20470;-56
2022/01/29 04:41:00;;;;;;;2.83;1.60;;;-0.60;99.90;;;;;;5063349;28;20482;-57
2022/01/29 04:43:27;;;;;;;2.67;1.37;;;-0.50;99.90;;;;;;5057038;28;20510;-56
2022/01/29 04:45:54;;;;;;;1.10;1.00;;;-0.30;99.90;;;;;;5052989;28;20480;-56
2022/01/29 04:48:21;;;;;;;0.73;0.73;;;-0.20;99.90;;;;;;5050858;28;20477;-57
2022/01/29 04:50:48;;;;;;;1.43;1.20;;;-0.10;99.90;;;;;;5053878;28;20448;-56
2022/01/29 04:53:15;;;;;;;1.10;1.00;;;0.00;99.90;;;;;;5057135;28;20478;-55
2022/01/29 04:55:42;;;;;;;1.33;1.07;;;0.10;99.90;;;;;;5052979;28;20488;-56
2022/01/29 04:58:10;;;;;;;1.83;1.30;;;0.10;99.90;;;;;;5052502;28;20907;-56
2022/01/29 05:00:38;;;;;;;4.50;3.50;;;0.20;99.90;;;;;;5051687;28;20549;-56
2022/01/29 05:03:09;;;;;;;3.60;2.27;;;0.20;99.90;;;;;;5062186;28;21009;-56
2022/01/29 05:05:37;;;;;;;2.30;1.90;;;0.20;99.90;;;;;;5056545;28;20482;-56
2022/01/29 05:08:04;;;;;;;2.33;1.50;;;0.20;99.90;;;;;;5053760;28;20507;-56
2022/01/29 05:10:31;;;;;;;2.50;1.40;;;0.20;99.90;;;;;;5052523;28;20528;-56
2022/01/29 05:13:02;;;;;;;5.60;2.50;;;0.30;99.90;;;;;;5056780;28;20508;-56
2022/01/29 05:15:37;;;;;;;2.03;1.43;;;0.30;99.90;;;;;;5057011;28;20897;-56
2022/01/29 05:29:04;;;;;;;1.10;1.00;;;0.40;99.90;;;;;;5060976;28;20415;-56
2022/01/29 05:31:33;;;;;;;1.20;1.10;;;0.30;99.90;;;;;;5057576;28;20483;-56
2022/01/29 05:34:01;;;;;;;1.37;1.10;;;0.10;99.90;;;;;;5056986;28;20472;-56
2022/01/29 05:36:28;;;;;;;1.50;1.40;;;0.10;99.90;;;;;;5055365;28;20509;-58
2022/01/29 05:38:55;;;;;;;2.33;2.07;;;0.20;99.90;;;;;;5052176;28;20476;-56
2022/01/29 05:41:22;;;;;;;3.17;2.40;;;0.20;99.90;;;;;;5049956;28;20468;-56
2022/01/29 05:43:48;;;;;;;2.47;1.63;;;0.30;99.90;;;;;;5048849;28;20467;-55
2022/01/29 05:46:17;;;;;;;1.73;1.53;;;0.30;99.90;;;;;;5048368;28;20497;-55
2022/01/29 05:48:46;;;;;;;1.93;1.20;;;0.00;99.90;;;;;;5064074;28;20833;-56
2022/01/29 05:51:13;;;;;;;1.40;1.30;;;-0.30;99.90;;;;;;5038379;28;20492;-56
2022/01/29 05:53:40;;;;;;;1.87;1.50;;;-0.30;99.90;;;;;;5051951;28;20482;-56
2022/01/29 05:56:08;;;;;;;2.23;1.30;;;-0.30;99.90;;;;;;5061335;28;20522;-56
2022/01/29 05:58:36;;;;;;;3.10;2.30;;;-0.20;99.90;;;;;;5061092;28;20449;-56
2022/01/29 06:01:03;;;;;;;2.90;1.33;;;-0.20;99.90;;;;;;5053693;28;20446;-55
2022/01/29 06:03:31;;;;;;;2.73;2.50;;;-0.10;99.90;;;;;;5051739;28;20977;-55
2022/01/29 06:05:59;;;;;;;9.40;8.43;;;-0.30;99.90;;;;;;5041625;28;20483;-56
2022/01/29 06:08:26;;;;;;;8.03;7.23;;;-0.20;99.90;;;;;;5053298;28;20743;-55
2022/01/29 06:10:53;;;;;;;3.43;2.53;;;-0.10;99.90;;;;;;5043729;28;21682;-55
2022/01/29 06:13:20;;;;;;;2.43;2.30;;;0.00;99.90;;;;;;5045649;28;20875;-56
2022/01/29 06:15:48;;;;;;;3.00;2.77;;;0.10;99.90;;;;;;5065679;28;21007;-55
2022/01/29 06:18:18;;;;;;;3.40;3.10;;;0.20;99.90;;;;;;5057906;28;20839;-54
2022/01/29 06:20:46;;;;;;;4.50;3.37;;;0.20;99.90;;;;;;5045850;28;20488;-55
2022/01/29 06:23:15;;;;;;;5.90;3.80;;;0.20;99.90;;;;;;5052188;28;20852;-56
2022/01/29 06:25:43;;;;;;;3.77;3.20;;;0.20;99.90;;;;;;5056138;28;20445;-55
2022/01/29 06:28:10;;;;;;;2.60;1.97;;;0.30;99.90;;;;;;5055660;28;20533;-56
2022/01/29 06:30:37;;;;;;;2.20;2.00;;;0.30;99.90;;;;;;5054189;28;20487;-56
2022/01/29 06:33:09;;;;;;;2.17;2.07;;;0.40;99.90;;;;;;5054522;28;20482;-56
2022/01/29 06:35:36;;;;;;;2.40;2.20;;;0.40;99.90;;;;;;5063276;28;20493;-56
2022/01/29 06:38:03;;;;;;;5.00;3.50;;;0.40;99.90;;;;;;5055901;28;20506;-56
2022/01/29 06:40:32;;;;;;;4.40;3.30;;;0.40;99.90;;;;;;5053597;28;21050;-56
2022/01/29 06:43:01;;;;;;;3.37;1.93;;;0.00;99.90;;;;;;5059465;28;20483;-54
2022/01/29 06:45:28;;;;;;;3.57;1.80;;;-0.30;99.90;;;;;;5037327;28;20540;-54
2022/01/29 06:47:55;;;;;;;1.60;1.50;;;-0.30;99.90;;;;;;5046175;28;20997;-56
2022/01/29 06:50:23;;;;;;;2.43;2.23;;;-0.20;99.90;;;;;;5047773;28;20436;-56
2022/01/29 06:52:50;;;;;;;1.87;1.60;;;0.00;99.90;;;;;;5062209;28;20499;-56
2022/01/29 06:55:18;;;;;;;1.00;0.93;;;0.00;99.90;;;;;;5050775;28;20516;-56
2022/01/29 06:57:47;;;;;;;1.37;1.27;;;0.00;99.90;;;;;;5049808;28;20537;-56
2022/01/29 07:00:15;;;;;;;3.57;1.60;;;0.10;99.90;;;;;;5058914;28;20448;-56
2022/01/29 07:02:42;;;;;;;2.33;1.27;;;0.20;99.90;;;;;;5051342;28;20479;-55
2022/01/29 07:05:11;;;;;;;2.20;1.87;;;0.30;99.90;;;;;;5051586;28;20461;-55
2022/01/29 07:07:39;;;;;;;2.73;1.60;;;0.30;99.90;;;;;;5051153;28;20501;-56
2022/01/29 07:10:07;;;;;;;1.20;1.10;;;-0.10;99.90;;;;;;5054502;28;20485;-56
2022/01/29 07:12:34;;;;;;;3.77;3.30;;;-0.10;99.90;;;;;;5062611;28;20447;-56
2022/01/29 07:15:02;;;;;;;4.60;4.20;;;0.00;99.90;;;;;;5054592;28;20480;-55
2022/01/29 07:17:29;;;;;;;5.97;4.33;;;0.10;99.90;;;;;;5053090;28;20467;-56
2022/01/29 07:19:56;;;;;;;4.50;4.00;;;0.20;99.90;;;;;;5056018;28;20492;-56
2022/01/29 07:22:23;;;;;;;3.97;3.20;;;0.30;99.90;;;;;;5066451;28;20495;-58
2022/01/29 07:24:50;;;;;;;5.63;2.83;;;0.30;99.90;;;;;;5050880;28;20466;-55
2022/01/29 07:27:17;;;;;;;4.87;3.30;;;0.30;99.90;;;;;;5046501;28;20561;-54
2022/01/29 07:29:44;;;;;;;4.43;2.23;;;0.40;99.90;;;;;;5062881;28;20507;-56
2022/01/29 07:32:13;;;;;;;3.50;2.27;;;0.40;99.90;;;;;;5054947;28;20476;-55
2022/01/29 07:34:40;;;;;;;4.97;2.60;;;0.40;99.90;;;;;;5050909;28;20472;-56
2022/01/29 07:37:07;;;;;;;3.33;2.53;;;0.50;99.90;;;;;;5054978;28;20509;-56
2022/01/29 07:39:34;;;;;;;6.63;5.50;;;0.50;99.90;;;;;;5059829;28;20896;-56
2022/01/29 07:42:01;;;;;;;4.70;4.20;;;0.50;99.90;;;;;;5051939;28;20552;-56
2022/01/29 07:44:28;;;;;;;3.40;2.50;;;0.60;99.90;;;;;;5044794;28;20478;-56
2022/01/29 07:46:55;;;;;;;4.03;3.13;;;0.60;99.90;;;;;;5042197;28;20492;-57
2022/01/29 07:49:23;;;;;;;4.60;3.70;;;0.70;99.90;;;;;;5044532;28;20482;-56
2022/01/29 07:51:50;;;;;;;9.90;7.63;;;0.70;99.90;;;;;;5047533;28;20476;-56
2022/01/29 07:54:17;;;;;;;7.17;6.47;;;0.60;99.90;;;;;;5041869;28;20472;-55
2022/01/29 07:56:44;;;;;;;11.77;8.73;;;0.60;99.90;;;;;;5042366;28;20520;-56
2022/01/29 07:59:11;;;;;;;34.90;25.17;;;0.60;99.90;;;;;;5042717;28;20465;-56
2022/01/29 08:01:38;;;;;;;32.03;20.00;;;0.70;99.90;;;;;;5043934;28;20474;-56
2022/01/29 08:04:05;;;;;;;4.53;3.87;;;0.70;99.90;;;;;;5043851;28;20481;-55
2022/01/29 08:06:34;;;;;;;12.67;4.77;;;0.60;99.90;;;;;;5041926;28;20572;-55
2022/01/29 08:09:00;;;;;;;4.53;4.07;;;0.30;99.90;;;;;;5041874;28;20479;-56
2022/01/29 08:11:27;;;;;;;7.67;6.10;;;0.30;99.90;;;;;;5044776;28;20950;-54
2022/01/29 08:13:54;;;;;;;7.87;5.67;;;0.50;99.90;;;;;;5041910;28;20518;-56
2022/01/29 08:16:21;;;;;;;8.33;6.30;;;0.60;99.90;;;;;;5043968;28;20521;-57
2022/01/29 08:18:48;;;;;;;12.23;5.73;;;0.60;99.90;;;;;;5045124;28;20485;-55
2022/01/29 08:21:16;;;;;;;19.17;12.23;;;0.70;99.90;;;;;;5041362;28;20492;-56
2022/01/29 08:23:44;;;;;;;12.73;9.73;;;0.70;99.90;;;;;;5042192;28;20508;-56
2022/01/29 08:26:12;;;;;;;11.43;8.37;;;0.60;99.90;;;;;;5037800;28;20467;-56
2022/01/29 08:28:40;;;;;;;6.03;4.83;;;0.30;99.90;;;;;;5045839;28;20473;-56
2022/01/29 08:31:07;;;;;;;14.57;8.27;;;0.20;99.90;;;;;;5041059;28;20947;-56
2022/01/29 08:33:34;;;;;;;12.30;8.10;;;0.30;99.90;;;;;;5040899;28;21071;-56
2022/01/29 08:36:03;;;;;;;8.87;7.50;;;0.40;99.90;;;;;;5043704;28;20473;-56
2022/01/29 08:38:30;;;;;;;11.63;9.57;;;0.50;99.90;;;;;;5044284;28;20460;-56
2022/01/29 08:40:58;;;;;;;10.40;9.43;;;0.60;99.90;;;;;;5042607;28;21004;-55
2022/01/29 08:43:26;;;;;;;12.33;11.10;;;0.50;99.90;;;;;;5041844;28;20469;-55
2022/01/29 08:45:53;;;;;;;13.20;10.77;;;0.20;99.90;;;;;;5041804;28;20476;-55
2022/01/29 08:48:21;;;;;;;13.60;10.30;;;0.10;99.90;;;;;;5044322;28;20479;-56
2022/01/29 08:50:48;;;;;;;11.30;9.27;;;0.30;99.90;;;;;;5041541;28;20482;-56
2022/01/29 08:53:16;;;;;;;9.00;8.17;;;0.00;99.90;;;;;;5039914;28;20478;-56
2022/01/29 08:55:43;;;;;;;12.97;10.50;;;0.20;99.90;;;;;;5044925;28;20592;-56
2022/01/29 08:58:12;;;;;;;9.97;7.50;;;0.30;99.90;;;;;;5040636;28;20508;-56
2022/01/29 09:00:42;;;;;;;8.10;7.30;;;0.40;99.90;;;;;;5042619;28;20463;-56
2022/01/29 09:03:09;;;;;;;8.97;7.77;;;0.40;99.90;;;;;;5043291;28;20448;-56
2022/01/29 09:05:36;;;;;;;8.47;7.47;;;0.30;99.90;;;;;;5044376;28;20991;-55
2022/01/29 09:08:04;;;;;;;10.03;8.97;;;0.40;99.90;;;;;;5040417;28;20489;-56
2022/01/29 09:10:31;;;;;;;9.27;8.10;;;0.50;99.90;;;;;;5042476;28;20954;-56
2022/01/29 09:12:58;;;;;;;7.93;5.80;;;0.60;99.90;;;;;;5044647;28;20437;-54
2022/01/29 09:15:26;;;;;;;9.80;7.87;;;0.70;99.90;;;;;;5038173;28;20512;-56
2022/01/29 09:17:53;;;;;;;9.30;8.13;;;0.80;99.90;;;;;;5037774;28;20515;-56
2022/01/29 09:20:20;;;;;;;8.87;8.07;;;0.90;99.90;;;;;;5047216;28;20503;-56
2022/01/29 09:22:48;;;;;;;8.23;7.10;;;1.00;99.90;;;;;;5056399;28;20479;-56
2022/01/29 09:25:14;;;;;;;9.80;6.60;;;1.00;99.90;;;;;;5049811;28;20496;-56
2022/01/29 09:27:41;;;;;;;7.47;6.57;;;1.00;99.90;;;;;;5057711;28;20499;-56
2022/01/29 09:30:09;;;;;;;5.10;4.53;;;1.00;99.90;;;;;;5055300;28;20537;-56
2022/01/29 09:32:38;;;;;;;5.23;4.70;;;0.80;99.90;;;;;;5047534;28;20800;-56
2022/01/29 09:35:06;;;;;;;7.13;6.43;;;0.90;99.90;;;;;;5052065;28;20481;-56
2022/01/29 09:37:33;;;;;;;10.10;8.53;;;1.00;99.90;;;;;;5054874;28;20511;-55
2022/01/29 09:40:00;;;;;;;9.07;8.13;;;1.00;99.90;;;;;;5062650;28;20819;-56
2022/01/29 09:42:27;;;;;;;8.63;7.40;;;1.10;99.90;;;;;;5044652;28;20837;-56
2022/01/29 09:44:54;;;;;;;7.73;6.87;;;0.70;99.90;;;;;;5055940;28;20456;-56
2022/01/29 09:47:23;;;;;;;13.20;8.67;;;0.40;99.90;;;;;;5053040;28;20812;-55
2022/01/29 09:49:53;;;;;;;8.73;7.50;;;0.30;99.90;;;;;;5046589;28;20546;-55
2022/01/29 09:52:20;;;;;;;7.77;5.87;;;0.50;99.90;;;;;;5051726;28;20805;-56
2022/01/29 09:54:49;;;;;;;6.23;4.23;;;0.60;99.90;;;;;;5048213;28;20479;-56
2022/01/29 09:57:16;;;;;;;7.23;5.90;;;0.80;99.90;;;;;;5053881;28;20480;-56
2022/01/29 09:59:43;;;;;;;9.97;7.10;;;0.90;99.90;;;;;;5057713;28;20813;-55
2022/01/29 10:02:18;;;;;;;11.10;7.53;;;1.00;99.90;;;;;;5047167;28;20536;-56
2022/01/29 10:04:51;;;;;;;6.67;6.00;;;1.10;99.90;;;;;;5049754;28;20472;-56
2022/01/29 10:07:20;;;;;;;7.87;6.13;;;1.10;99.90;;;;;;5045319;28;20468;-55
2022/01/29 10:09:47;;;;;;;10.87;7.47;;;1.20;99.90;;;;;;5047697;28;20487;-55
2022/01/29 10:12:23;;;;;;;16.20;11.30;;;1.30;99.90;;;;;;5043931;28;20542;-56
2022/01/29 10:14:52;;;;;;;24.97;16.03;;;1.40;99.90;;;;;;5057647;28;20486;-56
2022/01/29 10:17:38;;;;;;;20.73;12.70;;;1.40;99.90;;;;;;5041571;28;21018;-56
2022/01/29 10:20:16;;;;;;;11.90;9.03;;;1.50;99.90;;;;;;5051118;28;21010;-55
2022/01/29 10:22:47;;;;;;;9.20;7.70;;;1.50;99.90;;;;;;5049001;28;20457;-56
2022/01/29 10:25:17;;;;;;;6.57;5.80;;;1.60;99.90;;;;;;5051978;28;20450;-55
2022/01/29 10:28:12;;;;;;;5.90;5.00;;;1.60;99.90;;;;;;5054319;28;20461;-56
2022/01/29 10:30:59;;;;;;;4.57;4.00;;;2.40;99.90;;;;;;5049869;28;20445;-56
2022/01/29 10:33:28;;;;;;;6.80;4.40;;;4.60;99.90;;;;;;5048565;28;20507;-57
2022/01/29 10:35:57;;;;;;;6.00;4.50;;;6.30;99.90;;;;;;5050904;28;20545;-56
2022/01/29 10:38:25;;;;;;;4.77;4.20;;;;;;;;;;5071920;22;20534;-55
2022/01/29 10:41:12;;;;;;;6.37;5.77;;;7.80;99.90;;;;;;5042142;28;20464;-52
2022/01/29 10:44:09;;;;;;;5.60;5.10;;;7.30;99.90;;;;;;5050404;28;20461;-49
2022/01/29 10:46:37;;;;;;;5.97;5.37;;;6.60;99.90;;;;;;5043888;28;20900;-53
2022/01/29 10:49:05;;;;;;;6.40;5.47;;;5.10;99.90;;;;;;5044878;28;20500;-53
2022/01/29 10:51:35;;;;;;;5.70;5.03;;;4.20;99.90;;;;;;5042897;28;20452;-53
2022/01/29 10:54:19;;;;;;;6.57;5.67;;;3.00;99.90;;;;;;5050341;28;20956;-53
2022/01/29 10:56:55;;;;;;;5.50;4.43;;;2.30;99.90;;;;;;5046015;28;20823;-54
2022/01/29 10:59:22;;;;;;;4.20;3.70;;;2.30;99.90;;;;;;5043313;28;20960;-52
2022/01/29 11:01:54;;;;;;;3.73;3.20;;;2.30;99.90;;;;;;5048324;28;20905;-53
2022/01/29 11:04:21;;;;;;;5.37;4.43;;;2.40;99.90;;;;;;5051529;28;20441;-52
2022/01/29 11:06:52;;;;;;;11.83;9.70;;;2.60;99.90;;;;;;5048428;28;20428;-53
2022/01/29 11:09:19;;;;;;;8.23;7.43;;;2.70;99.90;;;;;;5046567;28;20445;-55
2022/01/29 11:11:47;;;;;;;10.20;6.50;;;2.80;99.90;;;;;;5052074;28;20480;-51
2022/01/29 11:14:17;;;;;;;8.47;6.43;;;2.90;99.90;;;;;;5054809;28;20537;-53
2022/01/29 11:16:45;;;;;;;6.40;5.33;;;2.70;99.90;;;;;;5045361;28;20894;-51
2022/01/29 11:19:13;;;;;;;6.13;5.53;;;2.60;99.90;;;;;;5046901;28;20834;-52
2022/01/29 11:21:43;;;;;;;12.00;6.17;;;2.70;99.90;;;;;;5050846;28;20441;-53
2022/01/29 11:24:12;;;;;;;5.93;5.33;;;2.70;99.90;;;;;;5049930;28;20445;-55
2022/01/29 11:26:41;;;;;;;6.67;5.50;;;2.50;99.90;;;;;;5049362;28;20466;-51
2022/01/29 11:29:25;;;;;;;5.33;4.77;;;2.50;99.90;;;;;;5051059;28;20798;-50
2022/01/29 11:32:25;;;;;;;6.00;5.33;;;2.50;99.90;;;;;;5042209;28;20486;-49
2022/01/29 11:35:13;;;;;;;6.40;5.50;;;2.60;99.90;;;;;;5033893;28;20469;-53
2022/01/29 11:37:48;;;;;;;6.23;5.33;;;2.60;99.90;;;;;;5050702;28;20512;-49
2022/01/29 11:40:29;;;;;;;12.13;6.00;;;2.70;99.90;;;;;;5050390;28;20504;-53
2022/01/29 11:43:06;;;;;;;5.70;5.00;;;2.30;99.90;;;;;;5046161;28;20449;-53
2022/01/29 11:45:57;;;;;;;5.87;4.60;;;2.20;99.90;;;;;;5049751;28;20440;-52
2022/01/29 11:48:52;;;;;;;3.80;3.30;;;2.20;99.90;;;;;;5050246;28;20463;-52
2022/01/29 11:51:50;;;;;;;8.40;5.40;;;2.40;99.90;;;;;;5049997;28;20480;-53
2022/01/29 11:54:20;;;;;;;10.50;7.50;;;2.50;99.90;;;;;;5015082;28;20504;-53
2022/01/29 11:57:05;;;;;;;4.20;3.80;;;2.50;99.90;;;;;;5049167;28;20476;-52
2022/01/29 11:59:34;;;;;;;8.30;4.73;;;2.60;99.90;;;;;;5046898;28;20714;-47
2022/01/29 12:02:04;;;;;;;5.70;5.13;;;2.60;99.90;;;;;;5047087;28;20454;-53
2022/01/29 12:05:03;;;;;;;7.90;6.27;;;2.60;99.90;;;;;;5049725;28;20445;-53
2022/01/29 12:07:33;;;;;;;6.30;5.70;;;2.60;99.90;;;;;;5050752;28;21017;-52
2022/01/29 12:10:04;;;;;;;9.00;8.03;;;2.70;99.90;;;;;;5051690;28;20763;-52
2022/01/29 12:12:34;;;;;;;9.07;7.10;;;2.70;99.90;;;;;;5052443;28;20518;-53
2022/01/29 12:15:36;;;;;;;6.57;5.97;;;2.70;99.90;;;;;;5052613;28;20647;-50
2022/01/29 12:18:08;;;;;;;5.50;5.00;;;2.70;99.90;;;;;;5048762;28;20485;-53
2022/01/29 12:20:35;;;;;;;6.83;6.13;;;2.50;99.90;;;;;;5047282;28;20503;-52
2022/01/29 12:23:04;;;;;;;8.30;6.60;;;2.60;99.90;;;;;;5050608;28;20477;-53
2022/01/29 12:25:31;;;;;;;8.80;6.00;;;2.60;99.90;;;;;;5051359;28;20451;-54
2022/01/29 12:28:01;;;;;;;10.53;9.43;;;2.60;99.90;;;;;;5049144;28;20907;-51
2022/01/29 12:30:30;;;;;;;12.80;11.10;;;2.70;99.90;;;;;;5046877;28;20927;-47
2022/01/29 12:33:02;;;;;;;20.10;17.13;;;2.70;99.90;;;;;;5049332;28;20492;-53
2022/01/29 12:35:34;;;;;;;7.90;6.10;;;2.70;99.90;;;;;;5055695;28;20504;-49
2022/01/29 12:38:01;;;;;;;11.67;6.00;;;2.70;99.90;;;;;;5051487;28;20504;-52
2022/01/29 12:40:28;;;;;;;8.27;5.60;;;2.80;99.90;;;;;;5045706;28;20485;-52
2022/01/29 12:43:00;;;;;;;6.47;5.80;;;2.80;99.90;;;;;;5046595;28;20895;-50
2022/01/29 12:45:30;;;;;;;6.73;6.07;;;2.90;99.90;;;;;;5053858;28;20431;-49
2022/01/29 12:48:09;;;;;;;6.53;5.20;;;2.90;99.90;;;;;;5049158;28;20487;-53
2022/01/29 12:50:36;;;;;;;7.20;5.80;;;3.00;99.90;;;;;;5043483;28;20484;-53
2022/01/29 12:53:10;;;;;;;6.00;5.47;;;3.00;99.90;;;;;;5050349;28;20940;-50
2022/01/29 12:55:37;;;;;;;8.17;7.10;;;2.90;99.90;;;;;;5046241;28;20470;-51
2022/01/29 12:58:05;;;;;;;7.53;6.90;;;2.90;99.90;;;;;;5046686;28;21022;-52
2022/01/29 13:00:34;;;;;;;8.77;7.63;;;2.90;99.90;;;;;;5046901;28;20797;-52
2022/01/29 13:03:09;;;;;;;7.67;6.93;;;2.90;99.90;;;;;;5056795;28;20481;-51
2022/01/29 13:05:44;;;;;;;10.00;7.10;;;3.00;99.90;;;;;;5049544;28;20449;-51
2022/01/29 13:08:24;;;;;;;10.80;7.30;;;2.90;99.90;;;;;;5049760;28;20492;-52
2022/01/29 13:10:51;;;;;;;7.60;6.73;;;2.80;99.90;;;;;;5047664;28;20567;-54
2022/01/29 13:13:27;;;;;;;7.53;6.40;;;2.90;99.90;;;;;;5039820;28;20880;-52
2022/01/29 13:15:55;;;;;;;6.80;6.10;;;2.80;99.90;;;;;;5041965;28;20480;-53